McCall, ID

7:16 AM MST on February 19, 2017 (GMT -0700)
McCall | | Change Station

Elev 5020 ft 44.89 °N, 116.10 °W | Updated 19 minutes ago

Snow
Snow
32 °F
Feels Like 28 °F
N
5
Wind Variable Wind from SSW

Today
High -- | Low -- °F
--% Chance of Precip.
Yesterday
High -- | Low -- °F
Precip. -- in
Pressure 29.50 in
Visibility 5.0 miles
Clouds Scattered Clouds 700 ft
Mostly Cloudy 1300 ft
Overcast 3600 ft
Windchill 28 °F
Dew Point 30 °F
Humidity 92%
Rainfall 0.09 in
Snow Depth Not available.
7:38 AM 6:18 PM
Last Quarter, 43% visible
SPECI KMYL 191357Z AUTO 20004KT 5SM -SN BR SCT007 BKN013 OVC036 00/M01 A2950 RMK AO2 P0000 T00001011
Pressure 29.50 in
Visibility 5.0 miles
Clouds Scattered Clouds 700 ft
Mostly Cloudy 1300 ft
Overcast 3600 ft
Windchill 28 °F
Dew Point 30 °F
Humidity 92%
Rainfall 0.09 in
Snow Depth Not available.
7:38 AM 6:18 PM
Last Quarter, 43% visible
SPECI KMYL 191357Z AUTO 20004KT 5SM -SN BR SCT007 BKN013 OVC036 00/M01 A2950 RMK AO2 P0000 T00001011

Get Your Daily Forecast Email!

Thanks for signing up!

Be on the lookout for a verification email in your inbox.

You'll start receiving the daily forecast at 8 AM.

×

10-Day Weather Forecast

Almanac

Astronomy

Feb. 19, 2017 Rise Set
Actual Time
Civil Twilight
Nautical Twilight
Astronomical Twilight
Moon
Length of Visible Light
Length of Day
Tomorrow will be .
, % of the Moon is Illuminated

Today's Extremes

State Highs State Lows

Community

WunderPhotos

Upload Photos

1,962,540 photos uploaded!

WunderBlog® & News

Nearby

Air Quality

  Air Quality AQ Index Pollutant
Not available.

Snow Depth

Station Depth Elevation

Earthquake Activity

City Distance Mag. Time & Date
Minimum magnitude displayed is 2.5.

Coastal Water Temperatures

Place Temperature

Stations

Nearby Weather Stations

Station Location Temp. Windchill Dew Point Humidity Wind Precip. Elev Updated Type
                   

Watches & Warnings

There are currently no watches in effect.